N229B KGRB-KSUE
Flight info
| Callsign | N229B |
|---|---|
| Flight time | 0h 20m |
| Altitude | 2500 |
| Route | D |
| Aircraft | C172/L-V/N |
Departure
| Time | 2026-04-20 18:43 |
|---|---|
| Airport | Austin Straubel International Airport (KGRB) |
Arrival
| Time | 2026-04-20 19:04 |
|---|---|
| Airport | Door County Cherryland Airport (KSUE) |
| Time | Latitude | Longitude | Altitude | Speed | Heading |
|---|---|---|---|---|---|
| 2026-04-20 18:31 | 44.49259 | -88.11784 | 686 ft | 0 kts | 330° |
| 2026-04-20 18:40 | 44.49273 | -88.11797 | 684 ft | 2 kts | 342° |
| 2026-04-20 18:40 | 44.49248 | -88.11713 | 685 ft | 12 kts | 96° |
| 2026-04-20 18:40 | 44.49292 | -88.11591 | 684 ft | 19 kts | 60° |
| 2026-04-20 18:41 | 44.49366 | -88.11407 | 680 ft | 13 kts | 61° |
| 2026-04-20 18:41 | 44.49379 | -88.11360 | 681 ft | 1 kts | 86° |
| 2026-04-20 18:41 | 44.49368 | -88.11319 | 681 ft | 0 kts | 149° |
| 2026-04-20 18:42 | 44.49297 | -88.11283 | 682 ft | 19 kts | 214° |
| 2026-04-20 18:43 | 44.49179 | -88.11556 | 684 ft | 56 kts | 240° |
| 2026-04-20 18:43 | 44.48971 | -88.12166 | 838 ft | 70 kts | 253° |
| 2026-04-20 18:43 | 44.49091 | -88.12799 | 1151 ft | 76 kts | 314° |
| 2026-04-20 18:43 | 44.49613 | -88.12865 | 1343 ft | 96 kts | 33° |
| 2026-04-20 18:44 | 44.50168 | -88.12212 | 1583 ft | 102 kts | 32° |
| 2026-04-20 18:44 | 44.50678 | -88.11612 | 2021 ft | 91 kts | 50° |
| 2026-04-20 18:44 | 44.51102 | -88.10959 | 2260 ft | 94 kts | 53° |
| 2026-04-20 18:44 | 44.51530 | -88.10248 | 2508 ft | 88 kts | 61° |
| 2026-04-20 18:45 | 44.51851 | -88.09391 | 2491 ft | 116 kts | 70° |
| 2026-04-20 18:45 | 44.52205 | -88.08321 | 2518 ft | 126 kts | 69° |
| 2026-04-20 18:45 | 44.52543 | -88.07187 | 2773 ft | 124 kts | 75° |
| 2026-04-20 18:45 | 44.53012 | -88.06120 | 2807 ft | 139 kts | 56° |
| 2026-04-20 18:46 | 44.53475 | -88.04941 | 2719 ft | 139 kts | 65° |
| 2026-04-20 18:46 | 44.53956 | -88.03809 | 2582 ft | 129 kts | 58° |
| 2026-04-20 18:46 | 44.54427 | -88.02757 | 2543 ft | 129 kts | 64° |
| 2026-04-20 18:46 | 44.54866 | -88.01634 | 2650 ft | 133 kts | 64° |
| 2026-04-20 18:47 | 44.55438 | -88.00526 | 2574 ft | 140 kts | 59° |
| 2026-04-20 18:47 | 44.55978 | -87.99403 | 2631 ft | 136 kts | 60° |
| 2026-04-20 18:47 | 44.56480 | -87.98313 | 2799 ft | 132 kts | 60° |
| 2026-04-20 18:47 | 44.57001 | -87.97184 | 2753 ft | 140 kts | 60° |
| 2026-04-20 18:48 | 44.57506 | -87.96058 | 2814 ft | 137 kts | 62° |
| 2026-04-20 18:48 | 44.58026 | -87.94842 | 2524 ft | 149 kts | 64° |
| 2026-04-20 18:48 | 44.58506 | -87.93601 | 2378 ft | 143 kts | 62° |
| 2026-04-20 18:48 | 44.59063 | -87.92374 | 2027 ft | 159 kts | 60° |
| 2026-04-20 18:49 | 44.59629 | -87.91074 | 1872 ft | 152 kts | 62° |
| 2026-04-20 18:49 | 44.60222 | -87.89852 | 1671 ft | 153 kts | 54° |
| 2026-04-20 18:49 | 44.60913 | -87.88799 | 1774 ft | 138 kts | 50° |
| 2026-04-20 18:49 | 44.61517 | -87.87828 | 1925 ft | 133 kts | 47° |
| 2026-04-20 18:50 | 44.62170 | -87.86909 | 2087 ft | 128 kts | 53° |
| 2026-04-20 18:50 | 44.62689 | -87.85929 | 2332 ft | 121 kts | 57° |
| 2026-04-20 18:50 | 44.63216 | -87.84945 | 2353 ft | 133 kts | 54° |
| 2026-04-20 18:50 | 44.63811 | -87.83886 | 2295 ft | 141 kts | 54° |
| 2026-04-20 18:51 | 44.64391 | -87.82784 | 2358 ft | 137 kts | 57° |
| 2026-04-20 18:51 | 44.65008 | -87.81801 | 2420 ft | 139 kts | 48° |
| 2026-04-20 18:51 | 44.65577 | -87.80733 | 2533 ft | 133 kts | 58° |
| 2026-04-20 18:51 | 44.66126 | -87.79624 | 2476 ft | 142 kts | 59° |
| 2026-04-20 18:52 | 44.66710 | -87.78529 | 2553 ft | 139 kts | 55° |
| 2026-04-20 18:52 | 44.67297 | -87.77454 | 2578 ft | 136 kts | 58° |
| 2026-04-20 18:52 | 44.67629 | -87.76237 | 2584 ft | 131 kts | 77° |
| 2026-04-20 18:52 | 44.68078 | -87.75100 | 2560 ft | 136 kts | 63° |
| 2026-04-20 18:53 | 44.68537 | -87.73959 | 2626 ft | 131 kts | 63° |
| 2026-04-20 18:53 | 44.68981 | -87.72842 | 2593 ft | 134 kts | 66° |
| 2026-04-20 18:53 | 44.69510 | -87.71740 | 2604 ft | 137 kts | 53° |
| 2026-04-20 18:53 | 44.69995 | -87.70625 | 2743 ft | 129 kts | 68° |
| 2026-04-20 18:54 | 44.70455 | -87.69520 | 2772 ft | 132 kts | 63° |
| 2026-04-20 18:54 | 44.70919 | -87.68427 | 2771 ft | 133 kts | 64° |
| 2026-04-20 18:54 | 44.71423 | -87.67302 | 2862 ft | 133 kts | 58° |
| 2026-04-20 18:54 | 44.71942 | -87.66200 | 2819 ft | 134 kts | 66° |
| 2026-04-20 18:55 | 44.72400 | -87.65047 | 2849 ft | 137 kts | 64° |
| 2026-04-20 18:55 | 44.72865 | -87.63859 | 2731 ft | 142 kts | 68° |
| 2026-04-20 18:55 | 44.73258 | -87.62608 | 2756 ft | 136 kts | 73° |
| 2026-04-20 18:55 | 44.73665 | -87.61356 | 2724 ft | 142 kts | 69° |
| 2026-04-20 18:56 | 44.74084 | -87.60097 | 2691 ft | 133 kts | 68° |
| 2026-04-20 18:56 | 44.74501 | -87.58948 | 2675 ft | 133 kts | 71° |
| 2026-04-20 18:56 | 44.74889 | -87.57762 | 2678 ft | 134 kts | 71° |
| 2026-04-20 18:56 | 44.75306 | -87.56603 | 2858 ft | 130 kts | 69° |
| 2026-04-20 18:57 | 44.75759 | -87.55497 | 2893 ft | 136 kts | 59° |
| 2026-04-20 18:57 | 44.76315 | -87.54418 | 2864 ft | 138 kts | 67° |
| 2026-04-20 18:57 | 44.76715 | -87.53208 | 2903 ft | 135 kts | 71° |
| 2026-04-20 18:57 | 44.77084 | -87.52010 | 2990 ft | 135 kts | 72° |
| 2026-04-20 18:58 | 44.77382 | -87.50747 | 3020 ft | 132 kts | 86° |
| 2026-04-20 18:58 | 44.77498 | -87.49512 | 2934 ft | 128 kts | 94° |
| 2026-04-20 18:58 | 44.77582 | -87.48286 | 2911 ft | 125 kts | 90° |
| 2026-04-20 18:58 | 44.77893 | -87.47093 | 2715 ft | 135 kts | 68° |
| 2026-04-20 18:59 | 44.78200 | -87.45947 | 2558 ft | 119 kts | 87° |
| 2026-04-20 18:59 | 44.78394 | -87.44734 | 2308 ft | 136 kts | 83° |
| 2026-04-20 18:59 | 44.78673 | -87.43486 | 2455 ft | 133 kts | 78° |
| 2026-04-20 18:59 | 44.78988 | -87.42286 | 2576 ft | 134 kts | 73° |
| 2026-04-20 19:00 | 44.79369 | -87.41071 | 2686 ft | 129 kts | 76° |
| 2026-04-20 19:00 | 44.79657 | -87.39964 | 2674 ft | 124 kts | 69° |
| 2026-04-20 19:00 | 44.80131 | -87.38788 | 2546 ft | 143 kts | 63° |
| 2026-04-20 19:00 | 44.80765 | -87.37760 | 2540 ft | 146 kts | 43° |
| 2026-04-20 19:01 | 44.81713 | -87.37176 | 2418 ft | 151 kts | 8° |
| 2026-04-20 19:01 | 44.82801 | -87.36940 | 2176 ft | 151 kts | 12° |
| 2026-04-20 19:01 | 44.83738 | -87.36921 | 2150 ft | 138 kts | 324° |
| 2026-04-20 19:01 | 44.84353 | -87.37975 | 2087 ft | 143 kts | 310° |
| 2026-04-20 19:02 | 44.85261 | -87.38631 | 2115 ft | 149 kts | 340° |
| 2026-04-20 19:02 | 44.86192 | -87.39132 | 1759 ft | 150 kts | 333° |
| 2026-04-20 19:02 | 44.86893 | -87.39852 | 1819 ft | 106 kts | 290° |
| 2026-04-20 19:02 | 44.87051 | -87.40825 | 1521 ft | 100 kts | 247° |
| 2026-04-20 19:03 | 44.86642 | -87.41423 | 1357 ft | 80 kts | 207° |
| 2026-04-20 19:03 | 44.86197 | -87.41682 | 1114 ft | 62 kts | 191° |
| 2026-04-20 19:03 | 44.85734 | -87.41828 | 1010 ft | 76 kts | 187° |
| 2026-04-20 19:03 | 44.85303 | -87.41957 | 874 ft | 60 kts | 192° |
| 2026-04-20 19:04 | 44.84903 | -87.42091 | 724 ft | 52 kts | 189° |
| 2026-04-20 19:04 | 44.84676 | -87.42158 | 714 ft | 11 kts | 187° |
| 2026-04-20 19:04 | 44.84600 | -87.42185 | 717 ft | 19 kts | 193° |
| 2026-04-20 19:04 | 44.84477 | -87.42232 | 718 ft | 12 kts | 224° |
| 2026-04-20 19:05 | 44.84426 | -87.42352 | 720 ft | 17 kts | 191° |
| 2026-04-20 19:05 | 44.84356 | -87.42431 | 720 ft | 12 kts | 273° |